sensor_id;sensor_type;location;lat;lon;timestamp;P1;durP1;ratioP1;P2;durP2;ratioP2
36597;SDS011;22607;49.550;11.940;2024-03-02T00:01:35;28.05;;;14.68;;
36597;SDS011;22607;49.550;11.940;2024-03-02T00:04:06;34.50;;;16.27;;
36597;SDS011;22607;49.550;11.940;2024-03-02T00:06:34;25.75;;;13.07;;
36597;SDS011;22607;49.550;11.940;2024-03-02T00:09:01;35.78;;;16.80;;
36597;SDS011;22607;49.550;11.940;2024-03-02T00:11:29;24.33;;;13.55;;
36597;SDS011;22607;49.550;11.940;2024-03-02T00:13:57;39.22;;;20.20;;
36597;SDS011;22607;49.550;11.940;2024-03-02T00:16:29;22.00;;;12.07;;
36597;SDS011;22607;49.550;11.940;2024-03-02T00:19:03;31.60;;;16.35;;
36597;SDS011;22607;49.550;11.940;2024-03-02T00:21:32;39.47;;;18.85;;
36597;SDS011;22607;49.550;11.940;2024-03-02T00:23:59;42.53;;;19.95;;
36597;SDS011;22607;49.550;11.940;2024-03-02T00:26:29;44.42;;;20.13;;
36597;SDS011;22607;49.550;11.940;2024-03-02T00:28:56;36.40;;;18.17;;
36597;SDS011;22607;49.550;11.940;2024-03-02T00:31:25;40.45;;;18.95;;
36597;SDS011;22607;49.550;11.940;2024-03-02T00:33:59;44.05;;;20.85;;
36597;SDS011;22607;49.550;11.940;2024-03-02T00:36:32;40.67;;;19.40;;
36597;SDS011;22607;49.550;11.940;2024-03-02T00:39:00;45.75;;;21.98;;
36597;SDS011;22607;49.550;11.940;2024-03-02T00:41:31;50.25;;;22.00;;
36597;SDS011;22607;49.550;11.940;2024-03-02T00:46:33;51.08;;;21.70;;
36597;SDS011;22607;49.550;11.940;2024-03-02T00:51:49;31.67;;;16.35;;
36597;SDS011;22607;49.550;11.940;2024-03-02T00:54:22;39.47;;;17.83;;
36597;SDS011;22607;49.550;11.940;2024-03-02T00:56:52;43.53;;;19.77;;
36597;SDS011;22607;49.550;11.940;2024-03-02T00:59:22;39.35;;;18.83;;
36597;SDS011;22607;49.550;11.940;2024-03-02T01:01:50;30.83;;;16.75;;
36597;SDS011;22607;49.550;11.940;2024-03-02T01:04:17;36.60;;;18.88;;
36597;SDS011;22607;49.550;11.940;2024-03-02T01:06:44;39.83;;;19.42;;
36597;SDS011;22607;49.550;11.940;2024-03-02T01:09:12;36.97;;;18.70;;
36597;SDS011;22607;49.550;11.940;2024-03-02T01:11:39;46.13;;;20.90;;
36597;SDS011;22607;49.550;11.940;2024-03-02T01:14:09;41.80;;;18.70;;
36597;SDS011;22607;49.550;11.940;2024-03-02T01:16:36;37.55;;;18.95;;
36597;SDS011;22607;49.550;11.940;2024-03-02T01:19:03;40.50;;;19.00;;
36597;SDS011;22607;49.550;11.940;2024-03-02T01:21:31;37.30;;;18.55;;
36597;SDS011;22607;49.550;11.940;2024-03-02T01:23:58;36.58;;;17.17;;
36597;SDS011;22607;49.550;11.940;2024-03-02T01:26:25;33.05;;;16.17;;
36597;SDS011;22607;49.550;11.940;2024-03-02T01:28:51;35.65;;;17.10;;
36597;SDS011;22607;49.550;11.940;2024-03-02T01:31:19;32.05;;;16.20;;
36597;SDS011;22607;49.550;11.940;2024-03-02T01:33:46;32.08;;;16.02;;
36597;SDS011;22607;49.550;11.940;2024-03-02T01:36:13;38.03;;;17.35;;
36597;SDS011;22607;49.550;11.940;2024-03-02T01:38:40;36.30;;;18.35;;
36597;SDS011;22607;49.550;11.940;2024-03-02T01:41:07;36.40;;;17.23;;
36597;SDS011;22607;49.550;11.940;2024-03-02T01:43:34;49.25;;;21.20;;
36597;SDS011;22607;49.550;11.940;2024-03-02T01:46:05;33.38;;;17.13;;
36597;SDS011;22607;49.550;11.940;2024-03-02T01:48:32;38.72;;;18.13;;
36597;SDS011;22607;49.550;11.940;2024-03-02T01:51:02;41.47;;;18.58;;
36597;SDS011;22607;49.550;11.940;2024-03-02T01:53:30;47.33;;;21.27;;
36597;SDS011;22607;49.550;11.940;2024-03-02T01:55:57;39.80;;;19.85;;
36597;SDS011;22607;49.550;11.940;2024-03-02T01:58:24;37.00;;;17.02;;
36597;SDS011;22607;49.550;11.940;2024-03-02T02:00:50;35.60;;;17.25;;
36597;SDS011;22607;49.550;11.940;2024-03-02T02:03:17;33.03;;;16.85;;
36597;SDS011;22607;49.550;11.940;2024-03-02T02:05:46;36.53;;;17.83;;
36597;SDS011;22607;49.550;11.940;2024-03-02T02:08:14;32.63;;;17.25;;
36597;SDS011;22607;49.550;11.940;2024-03-02T02:10:41;37.38;;;18.25;;
36597;SDS011;22607;49.550;11.940;2024-03-02T02:13:08;39.75;;;20.52;;
36597;SDS011;22607;49.550;11.940;2024-03-02T02:15:37;39.22;;;19.63;;
36597;SDS011;22607;49.550;11.940;2024-03-02T02:18:05;40.88;;;19.65;;
36597;SDS011;22607;49.550;11.940;2024-03-02T02:20:32;45.22;;;19.77;;
36597;SDS011;22607;49.550;11.940;2024-03-02T02:23:00;43.67;;;20.77;;
36597;SDS011;22607;49.550;11.940;2024-03-02T02:25:29;38.80;;;18.65;;
36597;SDS011;22607;49.550;11.940;2024-03-02T02:27:57;40.67;;;20.25;;
36597;SDS011;22607;49.550;11.940;2024-03-02T02:30:26;42.85;;;20.13;;
36597;SDS011;22607;49.550;11.940;2024-03-02T02:32:54;29.95;;;15.18;;
36597;SDS011;22607;49.550;11.940;2024-03-02T02:35:24;31.77;;;15.35;;
36597;SDS011;22607;49.550;11.940;2024-03-02T02:37:54;26.40;;;14.10;;
36597;SDS011;22607;49.550;11.940;2024-03-02T02:40:23;30.03;;;15.57;;
36597;SDS011;22607;49.550;11.940;2024-03-02T02:42:50;32.42;;;16.30;;
36597;SDS011;22607;49.550;11.940;2024-03-02T02:45:19;27.10;;;14.45;;
36597;SDS011;22607;49.550;11.940;2024-03-02T02:47:46;37.55;;;18.13;;
36597;SDS011;22607;49.550;11.940;2024-03-02T02:50:14;31.95;;;16.02;;
36597;SDS011;22607;49.550;11.940;2024-03-02T02:52:42;41.08;;;21.23;;
36597;SDS011;22607;49.550;11.940;2024-03-02T02:55:10;31.23;;;17.17;;
36597;SDS011;22607;49.550;11.940;2024-03-02T02:57:40;48.03;;;23.38;;
36597;SDS011;22607;49.550;11.940;2024-03-02T03:00:12;29.88;;;15.82;;
36597;SDS011;22607;49.550;11.940;2024-03-02T03:02:46;35.33;;;18.13;;
36597;SDS011;22607;49.550;11.940;2024-03-02T03:05:18;31.00;;;16.90;;
36597;SDS011;22607;49.550;11.940;2024-03-02T03:07:46;35.35;;;17.88;;
36597;SDS011;22607;49.550;11.940;2024-03-02T03:12:45;38.72;;;19.60;;
36597;SDS011;22607;49.550;11.940;2024-03-02T03:15:16;28.63;;;15.68;;
36597;SDS011;22607;49.550;11.940;2024-03-02T03:17:46;27.20;;;15.07;;
36597;SDS011;22607;49.550;11.940;2024-03-02T03:20:15;38.83;;;20.48;;
36597;SDS011;22607;49.550;11.940;2024-03-02T03:22:42;32.45;;;17.58;;
36597;SDS011;22607;49.550;11.940;2024-03-02T03:25:09;37.70;;;18.80;;
36597;SDS011;22607;49.550;11.940;2024-03-02T03:27:41;36.25;;;18.02;;
36597;SDS011;22607;49.550;11.940;2024-03-02T03:30:10;38.20;;;18.80;;
36597;SDS011;22607;49.550;11.940;2024-03-02T03:32:38;26.30;;;14.73;;
36597;SDS011;22607;49.550;11.940;2024-03-02T03:35:06;28.63;;;15.25;;
36597;SDS011;22607;49.550;11.940;2024-03-02T03:37:33;28.08;;;15.10;;
36597;SDS011;22607;49.550;11.940;2024-03-02T03:40:04;29.85;;;16.92;;
36597;SDS011;22607;49.550;11.940;2024-03-02T03:42:37;30.08;;;16.58;;
36597;SDS011;22607;49.550;11.940;2024-03-02T03:45:06;26.65;;;15.23;;
36597;SDS011;22607;49.550;11.940;2024-03-02T03:47:33;22.95;;;13.43;;
36597;SDS011;22607;49.550;11.940;2024-03-02T03:50:04;22.77;;;13.20;;
36597;SDS011;22607;49.550;11.940;2024-03-02T03:52:33;23.02;;;13.25;;
36597;SDS011;22607;49.550;11.940;2024-03-02T03:55:02;26.25;;;15.38;;
36597;SDS011;22607;49.550;11.940;2024-03-02T03:57:29;22.00;;;12.70;;
36597;SDS011;22607;49.550;11.940;2024-03-02T03:59:57;21.70;;;12.48;;
36597;SDS011;22607;49.550;11.940;2024-03-02T04:02:29;21.42;;;11.55;;
36597;SDS011;22607;49.550;11.940;2024-03-02T04:04:55;18.98;;;11.18;;
36597;SDS011;22607;49.550;11.940;2024-03-02T04:07:22;30.25;;;15.93;;
36597;SDS011;22607;49.550;11.940;2024-03-02T04:09:49;19.40;;;11.43;;
36597;SDS011;22607;49.550;11.940;2024-03-02T04:12:16;22.40;;;12.45;;
36597;SDS011;22607;49.550;11.940;2024-03-02T04:14:43;21.40;;;11.93;;
36597;SDS011;22607;49.550;11.940;2024-03-02T04:17:15;21.13;;;11.60;;
36597;SDS011;22607;49.550;11.940;2024-03-02T04:19:43;19.00;;;11.02;;
36597;SDS011;22607;49.550;11.940;2024-03-02T04:22:10;21.45;;;12.65;;
36597;SDS011;22607;49.550;11.940;2024-03-02T04:24:46;18.92;;;10.82;;
36597;SDS011;22607;49.550;11.940;2024-03-02T04:27:14;19.48;;;11.93;;
36597;SDS011;22607;49.550;11.940;2024-03-02T04:29:41;19.92;;;10.60;;
36597;SDS011;22607;49.550;11.940;2024-03-02T04:32:08;19.52;;;11.02;;
36597;SDS011;22607;49.550;11.940;2024-03-02T04:34:35;20.25;;;10.90;;
36597;SDS011;22607;49.550;11.940;2024-03-02T04:37:02;17.77;;;10.90;;
36597;SDS011;22607;49.550;11.940;2024-03-02T04:39:29;23.58;;;13.00;;
36597;SDS011;22607;49.550;11.940;2024-03-02T04:41:57;18.20;;;10.43;;
36597;SDS011;22607;49.550;11.940;2024-03-02T04:44:25;16.77;;;9.80;;
36597;SDS011;22607;49.550;11.940;2024-03-02T04:46:52;17.33;;;10.02;;
36597;SDS011;22607;49.550;11.940;2024-03-02T04:49:19;15.65;;;9.13;;
36597;SDS011;22607;49.550;11.940;2024-03-02T04:51:46;19.30;;;10.52;;
36597;SDS011;22607;49.550;11.940;2024-03-02T04:54:16;17.65;;;9.07;;
36597;SDS011;22607;49.550;11.940;2024-03-02T04:56:46;15.32;;;8.82;;
36597;SDS011;22607;49.550;11.940;2024-03-02T04:59:21;18.23;;;10.20;;
36597;SDS011;22607;49.550;11.940;2024-03-02T05:01:48;15.85;;;8.65;;
36597;SDS011;22607;49.550;11.940;2024-03-02T05:04:17;20.70;;;11.50;;
36597;SDS011;22607;49.550;11.940;2024-03-02T05:06:44;16.80;;;9.88;;
36597;SDS011;22607;49.550;11.940;2024-03-02T05:09:17;17.15;;;10.02;;
36597;SDS011;22607;49.550;11.940;2024-03-02T05:11:44;16.35;;;8.57;;
36597;SDS011;22607;49.550;11.940;2024-03-02T05:14:38;21.05;;;10.82;;
36597;SDS011;22607;49.550;11.940;2024-03-02T05:17:06;16.67;;;9.25;;
36597;SDS011;22607;49.550;11.940;2024-03-02T05:19:33;14.68;;;8.18;;
36597;SDS011;22607;49.550;11.940;2024-03-02T05:22:00;16.75;;;10.05;;
36597;SDS011;22607;49.550;11.940;2024-03-02T05:24:28;17.13;;;9.23;;
36597;SDS011;22607;49.550;11.940;2024-03-02T05:26:55;17.10;;;9.70;;
36597;SDS011;22607;49.550;11.940;2024-03-02T05:29:23;15.73;;;8.15;;
36597;SDS011;22607;49.550;11.940;2024-03-02T05:31:49;16.30;;;9.32;;
36597;SDS011;22607;49.550;11.940;2024-03-02T05:34:17;17.70;;;9.63;;
36597;SDS011;22607;49.550;11.940;2024-03-02T05:36:45;15.85;;;9.18;;
36597;SDS011;22607;49.550;11.940;2024-03-02T05:39:11;16.05;;;8.98;;
36597;SDS011;22607;49.550;11.940;2024-03-02T05:41:41;16.55;;;9.10;;
36597;SDS011;22607;49.550;11.940;2024-03-02T05:44:10;14.82;;;9.32;;
36597;SDS011;22607;49.550;11.940;2024-03-02T05:46:37;15.50;;;8.93;;
36597;SDS011;22607;49.550;11.940;2024-03-02T05:49:06;16.13;;;9.68;;
36597;SDS011;22607;49.550;11.940;2024-03-02T05:51:36;17.42;;;9.98;;
36597;SDS011;22607;49.550;11.940;2024-03-02T05:54:02;16.35;;;9.15;;
36597;SDS011;22607;49.550;11.940;2024-03-02T05:56:30;17.67;;;9.85;;
36597;SDS011;22607;49.550;11.940;2024-03-02T05:58:57;17.05;;;9.23;;
36597;SDS011;22607;49.550;11.940;2024-03-02T06:01:40;19.30;;;11.07;;
36597;SDS011;22607;49.550;11.940;2024-03-02T06:04:10;21.85;;;11.88;;
36597;SDS011;22607;49.550;11.940;2024-03-02T06:06:43;24.20;;;13.88;;
36597;SDS011;22607;49.550;11.940;2024-03-02T06:09:17;29.15;;;15.73;;
36597;SDS011;22607;49.550;11.940;2024-03-02T06:11:47;24.40;;;12.93;;
36597;SDS011;22607;49.550;11.940;2024-03-02T06:14:14;22.50;;;11.95;;
36597;SDS011;22607;49.550;11.940;2024-03-02T06:16:41;31.38;;;16.40;;
36597;SDS011;22607;49.550;11.940;2024-03-02T06:19:08;29.58;;;16.13;;
36597;SDS011;22607;49.550;11.940;2024-03-02T06:21:35;42.40;;;19.55;;
36597;SDS011;22607;49.550;11.940;2024-03-02T06:24:03;28.25;;;15.73;;
36597;SDS011;22607;49.550;11.940;2024-03-02T06:26:31;32.65;;;17.60;;
36597;SDS011;22607;49.550;11.940;2024-03-02T06:28:58;39.97;;;19.73;;
36597;SDS011;22607;49.550;11.940;2024-03-02T06:31:26;32.38;;;17.98;;
36597;SDS011;22607;49.550;11.940;2024-03-02T06:33:54;34.95;;;18.95;;
36597;SDS011;22607;49.550;11.940;2024-03-02T06:36:22;38.15;;;19.38;;
36597;SDS011;22607;49.550;11.940;2024-03-02T06:38:52;26.58;;;14.32;;
36597;SDS011;22607;49.550;11.940;2024-03-02T06:41:19;31.83;;;16.30;;
36597;SDS011;22607;49.550;11.940;2024-03-02T06:43:47;25.30;;;14.52;;
36597;SDS011;22607;49.550;11.940;2024-03-02T06:46:14;24.52;;;13.60;;
36597;SDS011;22607;49.550;11.940;2024-03-02T06:48:43;23.92;;;14.13;;
36597;SDS011;22607;49.550;11.940;2024-03-02T06:51:10;28.33;;;15.73;;
36597;SDS011;22607;49.550;11.940;2024-03-02T06:53:40;28.48;;;15.13;;
36597;SDS011;22607;49.550;11.940;2024-03-02T06:56:10;28.52;;;15.52;;
36597;SDS011;22607;49.550;11.940;2024-03-02T06:58:37;24.60;;;13.35;;
36597;SDS011;22607;49.550;11.940;2024-03-02T07:01:08;30.92;;;15.43;;
36597;SDS011;22607;49.550;11.940;2024-03-02T07:03:41;29.35;;;17.00;;
36597;SDS011;22607;49.550;11.940;2024-03-02T07:06:12;31.02;;;17.35;;
36597;SDS011;22607;49.550;11.940;2024-03-02T07:08:40;30.48;;;16.60;;
36597;SDS011;22607;49.550;11.940;2024-03-02T07:11:07;32.60;;;16.52;;
36597;SDS011;22607;49.550;11.940;2024-03-02T07:13:35;28.08;;;16.20;;
36597;SDS011;22607;49.550;11.940;2024-03-02T07:16:03;27.48;;;15.57;;
36597;SDS011;22607;49.550;11.940;2024-03-02T07:18:31;37.60;;;18.00;;
36597;SDS011;22607;49.550;11.940;2024-03-02T07:20:59;38.22;;;18.67;;
36597;SDS011;22607;49.550;11.940;2024-03-02T07:23:39;30.77;;;15.77;;
36597;SDS011;22607;49.550;11.940;2024-03-02T07:26:09;31.27;;;17.27;;
36597;SDS011;22607;49.550;11.940;2024-03-02T07:28:42;35.92;;;18.92;;
36597;SDS011;22607;49.550;11.940;2024-03-02T07:31:10;38.05;;;20.15;;
36597;SDS011;22607;49.550;11.940;2024-03-02T07:33:39;31.75;;;18.38;;
36597;SDS011;22607;49.550;11.940;2024-03-02T07:36:06;36.58;;;18.55;;
36597;SDS011;22607;49.550;11.940;2024-03-02T07:38:34;34.72;;;18.13;;
36597;SDS011;22607;49.550;11.940;2024-03-02T07:41:07;33.05;;;18.58;;
36597;SDS011;22607;49.550;11.940;2024-03-02T07:43:35;29.38;;;17.25;;
36597;SDS011;22607;49.550;11.940;2024-03-02T07:46:02;31.58;;;17.90;;
36597;SDS011;22607;49.550;11.940;2024-03-02T07:48:33;32.88;;;17.33;;
36597;SDS011;22607;49.550;11.940;2024-03-02T07:51:01;31.55;;;18.50;;
36597;SDS011;22607;49.550;11.940;2024-03-02T07:53:31;37.25;;;19.25;;
36597;SDS011;22607;49.550;11.940;2024-03-02T07:55:58;34.80;;;19.42;;
36597;SDS011;22607;49.550;11.940;2024-03-02T07:58:29;25.77;;;14.63;;
36597;SDS011;22607;49.550;11.940;2024-03-02T08:00:57;29.50;;;16.58;;
36597;SDS011;22607;49.550;11.940;2024-03-02T08:03:28;30.50;;;17.58;;
36597;SDS011;22607;49.550;11.940;2024-03-02T08:05:55;30.35;;;17.50;;
36597;SDS011;22607;49.550;11.940;2024-03-02T08:08:25;33.08;;;18.88;;
36597;SDS011;22607;49.550;11.940;2024-03-02T08:10:53;33.42;;;17.73;;
36597;SDS011;22607;49.550;11.940;2024-03-02T08:13:20;33.70;;;17.85;;
36597;SDS011;22607;49.550;11.940;2024-03-02T08:15:49;25.90;;;14.52;;
36597;SDS011;22607;49.550;11.940;2024-03-02T08:18:15;33.63;;;16.40;;
36597;SDS011;22607;49.550;11.940;2024-03-02T08:20:42;28.30;;;16.02;;
36597;SDS011;22607;49.550;11.940;2024-03-02T08:23:12;25.98;;;12.57;;
36597;SDS011;22607;49.550;11.940;2024-03-02T08:25:42;26.77;;;15.48;;
36597;SDS011;22607;49.550;11.940;2024-03-02T08:28:09;27.20;;;13.88;;
36597;SDS011;22607;49.550;11.940;2024-03-02T08:30:36;30.40;;;16.00;;
36597;SDS011;22607;49.550;11.940;2024-03-02T08:33:02;27.77;;;14.63;;
36597;SDS011;22607;49.550;11.940;2024-03-02T08:35:30;26.90;;;15.70;;
36597;SDS011;22607;49.550;11.940;2024-03-02T08:38:02;26.17;;;14.10;;
36597;SDS011;22607;49.550;11.940;2024-03-02T08:40:30;31.05;;;16.45;;
36597;SDS011;22607;49.550;11.940;2024-03-02T08:42:57;30.83;;;17.35;;
36597;SDS011;22607;49.550;11.940;2024-03-02T08:45:25;30.67;;;16.83;;
36597;SDS011;22607;49.550;11.940;2024-03-02T08:47:56;28.23;;;16.02;;
36597;SDS011;22607;49.550;11.940;2024-03-02T08:50:26;30.42;;;15.65;;
36597;SDS011;22607;49.550;11.940;2024-03-02T08:52:55;31.60;;;16.13;;
36597;SDS011;22607;49.550;11.940;2024-03-02T08:55:24;36.05;;;19.08;;
36597;SDS011;22607;49.550;11.940;2024-03-02T08:57:50;35.53;;;19.75;;
36597;SDS011;22607;49.550;11.940;2024-03-02T09:00:21;32.95;;;16.63;;
36597;SDS011;22607;49.550;11.940;2024-03-02T09:02:49;37.38;;;18.27;;
36597;SDS011;22607;49.550;11.940;2024-03-02T09:05:17;33.03;;;17.95;;
36597;SDS011;22607;49.550;11.940;2024-03-02T09:07:45;36.83;;;18.65;;
36597;SDS011;22607;49.550;11.940;2024-03-02T09:10:11;34.92;;;18.27;;
36597;SDS011;22607;49.550;11.940;2024-03-02T09:12:38;37.35;;;19.45;;
36597;SDS011;22607;49.550;11.940;2024-03-02T09:15:06;32.60;;;18.00;;
36597;SDS011;22607;49.550;11.940;2024-03-02T09:17:36;35.58;;;18.40;;
36597;SDS011;22607;49.550;11.940;2024-03-02T09:20:04;39.17;;;22.15;;
36597;SDS011;22607;49.550;11.940;2024-03-02T09:22:33;37.72;;;19.98;;
36597;SDS011;22607;49.550;11.940;2024-03-02T09:25:00;34.80;;;20.00;;
36597;SDS011;22607;49.550;11.940;2024-03-02T09:27:27;35.08;;;19.23;;
36597;SDS011;22607;49.550;11.940;2024-03-02T09:29:54;39.92;;;20.20;;
36597;SDS011;22607;49.550;11.940;2024-03-02T09:32:28;37.95;;;19.55;;
36597;SDS011;22607;49.550;11.940;2024-03-02T09:34:56;33.47;;;17.30;;
36597;SDS011;22607;49.550;11.940;2024-03-02T09:37:25;32.95;;;17.80;;
36597;SDS011;22607;49.550;11.940;2024-03-02T09:39:56;34.93;;;19.17;;
36597;SDS011;22607;49.550;11.940;2024-03-02T09:42:23;35.20;;;20.42;;
36597;SDS011;22607;49.550;11.940;2024-03-02T09:44:51;38.08;;;19.70;;
36597;SDS011;22607;49.550;11.940;2024-03-02T09:47:19;37.75;;;19.00;;
36597;SDS011;22607;49.550;11.940;2024-03-02T09:49:47;38.08;;;19.50;;
36597;SDS011;22607;49.550;11.940;2024-03-02T09:52:16;38.17;;;20.17;;
36597;SDS011;22607;49.550;11.940;2024-03-02T09:54:43;38.97;;;20.08;;
36597;SDS011;22607;49.550;11.940;2024-03-02T09:57:14;37.72;;;20.38;;
36597;SDS011;22607;49.550;11.940;2024-03-02T09:59:44;40.33;;;21.17;;
36597;SDS011;22607;49.550;11.940;2024-03-02T10:02:12;38.28;;;19.83;;
36597;SDS011;22607;49.550;11.940;2024-03-02T10:04:38;41.65;;;22.85;;
36597;SDS011;22607;49.550;11.940;2024-03-02T10:09:38;43.58;;;22.75;;
36597;SDS011;22607;49.550;11.940;2024-03-02T10:12:10;40.33;;;21.55;;
36597;SDS011;22607;49.550;11.940;2024-03-02T10:14:41;40.47;;;20.63;;
36597;SDS011;22607;49.550;11.940;2024-03-02T10:17:10;41.38;;;21.60;;
36597;SDS011;22607;49.550;11.940;2024-03-02T10:19:40;38.65;;;20.20;;
36597;SDS011;22607;49.550;11.940;2024-03-02T10:22:09;40.65;;;21.13;;
36597;SDS011;22607;49.550;11.940;2024-03-02T10:24:37;38.42;;;20.65;;
36597;SDS011;22607;49.550;11.940;2024-03-02T10:27:15;39.00;;;21.20;;
36597;SDS011;22607;49.550;11.940;2024-03-02T10:29:45;37.15;;;20.60;;
36597;SDS011;22607;49.550;11.940;2024-03-02T10:32:15;38.65;;;20.45;;
36597;SDS011;22607;49.550;11.940;2024-03-02T10:34:43;41.15;;;21.27;;
36597;SDS011;22607;49.550;11.940;2024-03-02T10:37:13;35.85;;;20.88;;
36597;SDS011;22607;49.550;11.940;2024-03-02T10:39:41;33.70;;;17.88;;
36597;SDS011;22607;49.550;11.940;2024-03-02T10:42:09;31.38;;;17.30;;
36597;SDS011;22607;49.550;11.940;2024-03-02T10:44:38;37.92;;;19.48;;
36597;SDS011;22607;49.550;11.940;2024-03-02T10:47:08;37.67;;;20.88;;
36597;SDS011;22607;49.550;11.940;2024-03-02T10:49:35;37.65;;;19.60;;
36597;SDS011;22607;49.550;11.940;2024-03-02T10:52:06;33.45;;;17.95;;
36597;SDS011;22607;49.550;11.940;2024-03-02T10:54:39;34.30;;;19.67;;
36597;SDS011;22607;49.550;11.940;2024-03-02T10:57:08;31.02;;;16.35;;
36597;SDS011;22607;49.550;11.940;2024-03-02T10:59:47;30.58;;;16.63;;
36597;SDS011;22607;49.550;11.940;2024-03-02T11:02:20;29.95;;;17.05;;
36597;SDS011;22607;49.550;11.940;2024-03-02T11:04:51;29.40;;;15.07;;
36597;SDS011;22607;49.550;11.940;2024-03-02T11:07:24;31.05;;;16.42;;
36597;SDS011;22607;49.550;11.940;2024-03-02T11:09:59;29.60;;;16.25;;
36597;SDS011;22607;49.550;11.940;2024-03-02T11:12:38;30.70;;;15.85;;
36597;SDS011;22607;49.550;11.940;2024-03-02T11:15:17;28.58;;;15.63;;
36597;SDS011;22607;49.550;11.940;2024-03-02T11:17:46;29.83;;;15.70;;
36597;SDS011;22607;49.550;11.940;2024-03-02T11:20:18;30.00;;;15.98;;
36597;SDS011;22607;49.550;11.940;2024-03-02T11:22:52;30.77;;;15.70;;
36597;SDS011;22607;49.550;11.940;2024-03-02T11:25:26;30.52;;;16.33;;
36597;SDS011;22607;49.550;11.940;2024-03-02T11:28:01;31.00;;;16.15;;
36597;SDS011;22607;49.550;11.940;2024-03-02T11:35:42;31.67;;;18.65;;
36597;SDS011;22607;49.550;11.940;2024-03-02T11:38:14;31.85;;;17.85;;
36597;SDS011;22607;49.550;11.940;2024-03-02T11:40:46;32.97;;;16.35;;
36597;SDS011;22607;49.550;11.940;2024-03-02T11:43:21;30.65;;;16.98;;
36597;SDS011;22607;49.550;11.940;2024-03-02T11:45:56;30.65;;;15.73;;
36597;SDS011;22607;49.550;11.940;2024-03-02T11:48:27;31.63;;;17.58;;
36597;SDS011;22607;49.550;11.940;2024-03-02T11:50:57;31.95;;;16.13;;
36597;SDS011;22607;49.550;11.940;2024-03-02T11:53:27;28.10;;;14.68;;
36597;SDS011;22607;49.550;11.940;2024-03-02T11:56:01;34.28;;;19.10;;
36597;SDS011;22607;49.550;11.940;2024-03-02T11:58:28;33.22;;;17.95;;
36597;SDS011;22607;49.550;11.940;2024-03-02T12:01:03;30.17;;;17.23;;
36597;SDS011;22607;49.550;11.940;2024-03-02T12:03:35;30.35;;;16.33;;
36597;SDS011;22607;49.550;11.940;2024-03-02T12:06:03;28.77;;;14.48;;
36597;SDS011;22607;49.550;11.940;2024-03-02T12:08:31;29.20;;;15.68;;
36597;SDS011;22607;49.550;11.940;2024-03-02T12:11:00;30.02;;;16.60;;
36597;SDS011;22607;49.550;11.940;2024-03-02T12:13:30;28.30;;;15.05;;
36597;SDS011;22607;49.550;11.940;2024-03-02T12:15:59;29.45;;;15.23;;
36597;SDS011;22607;49.550;11.940;2024-03-02T12:18:27;29.80;;;17.20;;
36597;SDS011;22607;49.550;11.940;2024-03-02T12:20:55;26.10;;;14.45;;
36597;SDS011;22607;49.550;11.940;2024-03-02T12:23:25;28.58;;;15.98;;
36597;SDS011;22607;49.550;11.940;2024-03-02T12:25:53;27.58;;;15.30;;
36597;SDS011;22607;49.550;11.940;2024-03-02T12:28:20;30.65;;;16.70;;
36597;SDS011;22607;49.550;11.940;2024-03-02T12:30:47;32.55;;;17.35;;
36597;SDS011;22607;49.550;11.940;2024-03-02T12:33:16;27.17;;;16.48;;
36597;SDS011;22607;49.550;11.940;2024-03-02T12:35:45;28.90;;;14.93;;
36597;SDS011;22607;49.550;11.940;2024-03-02T12:38:12;28.65;;;14.77;;
36597;SDS011;22607;49.550;11.940;2024-03-02T12:40:44;27.83;;;14.63;;
36597;SDS011;22607;49.550;11.940;2024-03-02T12:43:14;27.85;;;14.90;;
36597;SDS011;22607;49.550;11.940;2024-03-02T12:45:47;33.50;;;15.25;;
36597;SDS011;22607;49.550;11.940;2024-03-02T12:48:14;32.67;;;19.05;;
36597;SDS011;22607;49.550;11.940;2024-03-02T12:50:41;29.10;;;15.15;;
36597;SDS011;22607;49.550;11.940;2024-03-02T12:53:15;30.75;;;14.93;;
36597;SDS011;22607;49.550;11.940;2024-03-02T12:55:43;27.20;;;14.40;;
36597;SDS011;22607;49.550;11.940;2024-03-02T12:58:22;29.27;;;15.13;;
36597;SDS011;22607;49.550;11.940;2024-03-02T13:00:50;31.70;;;17.27;;
36597;SDS011;22607;49.550;11.940;2024-03-02T13:03:21;27.35;;;15.20;;
36597;SDS011;22607;49.550;11.940;2024-03-02T13:08:21;23.52;;;11.95;;
36597;SDS011;22607;49.550;11.940;2024-03-02T13:10:50;23.27;;;11.85;;
36597;SDS011;22607;49.550;11.940;2024-03-02T13:13:17;25.45;;;12.35;;
36597;SDS011;22607;49.550;11.940;2024-03-02T13:15:45;26.10;;;12.65;;
36597;SDS011;22607;49.550;11.940;2024-03-02T13:18:12;26.33;;;13.27;;
36597;SDS011;22607;49.550;11.940;2024-03-02T13:20:39;24.48;;;12.93;;
36597;SDS011;22607;49.550;11.940;2024-03-02T13:23:07;26.25;;;12.80;;
36597;SDS011;22607;49.550;11.940;2024-03-02T13:25:33;26.73;;;14.25;;
36597;SDS011;22607;49.550;11.940;2024-03-02T13:28:01;26.20;;;14.15;;
36597;SDS011;22607;49.550;11.940;2024-03-02T13:30:30;24.05;;;12.07;;
36597;SDS011;22607;49.550;11.940;2024-03-02T13:32:57;25.80;;;12.65;;
36597;SDS011;22607;49.550;11.940;2024-03-02T13:35:24;22.40;;;11.82;;
36597;SDS011;22607;49.550;11.940;2024-03-02T13:37:51;26.65;;;13.68;;
36597;SDS011;22607;49.550;11.940;2024-03-02T13:40:18;24.55;;;13.95;;
36597;SDS011;22607;49.550;11.940;2024-03-02T13:42:47;25.15;;;13.98;;
36597;SDS011;22607;49.550;11.940;2024-03-02T13:45:14;27.20;;;14.23;;
36597;SDS011;22607;49.550;11.940;2024-03-02T13:47:41;25.40;;;12.73;;
36597;SDS011;22607;49.550;11.940;2024-03-02T13:50:09;25.02;;;12.75;;
36597;SDS011;22607;49.550;11.940;2024-03-02T13:52:36;25.52;;;14.40;;
36597;SDS011;22607;49.550;11.940;2024-03-02T13:55:03;23.05;;;12.75;;
36597;SDS011;22607;49.550;11.940;2024-03-02T13:57:31;21.63;;;11.07;;
36597;SDS011;22607;49.550;11.940;2024-03-02T13:59:58;22.27;;;11.35;;
36597;SDS011;22607;49.550;11.940;2024-03-02T14:02:28;21.05;;;10.35;;
36597;SDS011;22607;49.550;11.940;2024-03-02T14:04:57;20.27;;;10.55;;
36597;SDS011;22607;49.550;11.940;2024-03-02T14:07:26;23.33;;;12.57;;
36597;SDS011;22607;49.550;11.940;2024-03-02T14:09:53;22.63;;;12.65;;
36597;SDS011;22607;49.550;11.940;2024-03-02T14:12:21;22.77;;;13.85;;
36597;SDS011;22607;49.550;11.940;2024-03-02T14:14:49;21.40;;;10.93;;
36597;SDS011;22607;49.550;11.940;2024-03-02T14:17:18;19.73;;;9.38;;
36597;SDS011;22607;49.550;11.940;2024-03-02T14:19:45;20.10;;;10.48;;
36597;SDS011;22607;49.550;11.940;2024-03-02T14:22:15;20.05;;;11.23;;
36597;SDS011;22607;49.550;11.940;2024-03-02T14:24:44;20.23;;;9.88;;
36597;SDS011;22607;49.550;11.940;2024-03-02T14:27:10;20.90;;;10.45;;
36597;SDS011;22607;49.550;11.940;2024-03-02T14:29:53;20.05;;;9.93;;
36597;SDS011;22607;49.550;11.940;2024-03-02T14:32:22;19.05;;;9.98;;
36597;SDS011;22607;49.550;11.940;2024-03-02T14:34:50;20.58;;;9.60;;
36597;SDS011;22607;49.550;11.940;2024-03-02T14:37:16;19.60;;;9.13;;
36597;SDS011;22607;49.550;11.940;2024-03-02T14:39:45;19.48;;;10.77;;